Time;durP1;ratioP1;P1;durP2;ratioP2;P2;SDS_P1;SDS_P2;PMS_P1;PMS_P2;Temp;Humidity;BMP_temperature;BMP_pressure;BME280_temperature;BME280_humidity;BME280_pressure;Samples;Min_cycle;Max_cycle;Signal;HPM_P1;HPM_P2
2022/04/04 00:01:45;;;;;;;2.37;2.00;;;2.50;93.00;;;;;;606411;236;26647;-63
2022/04/04 00:04:14;;;;;;;2.20;2.00;;;2.50;92.90;;;;;;604514;237;26598;-63
2022/04/04 00:06:41;;;;;;;1.90;1.80;;;2.50;92.90;;;;;;604451;234;26872;-63
2022/04/04 00:09:09;;;;;;;3.40;2.28;;;2.50;92.90;;;;;;604561;237;26832;-67
2022/04/04 00:11:36;;;;;;;2.15;1.70;;;2.50;92.90;;;;;;604304;232;26844;-67
2022/04/04 00:14:05;;;;;;;3.00;1.90;;;2.60;92.90;;;;;;604546;237;26587;-67
2022/04/04 00:16:32;;;;;;;3.00;1.92;;;2.60;92.90;;;;;;602584;236;26649;-67
2022/04/04 00:19:00;;;;;;;2.10;1.90;;;2.60;92.90;;;;;;604570;238;26793;-67
2022/04/04 00:21:26;;;;;;;2.30;2.15;;;2.60;92.80;;;;;;604519;237;26869;-67
2022/04/04 00:23:53;;;;;;;3.92;2.17;;;2.60;92.70;;;;;;604551;238;26613;-66
2022/04/04 00:26:21;;;;;;;2.25;2.03;;;2.60;92.80;;;;;;604573;234;26845;-66
2022/04/04 00:28:49;;;;;;;3.87;2.20;;;2.60;92.80;;;;;;601701;238;26660;-67
2022/04/04 00:31:15;;;;;;;2.42;2.05;;;2.60;92.80;;;;;;602880;237;26549;-66
2022/04/04 00:33:43;;;;;;;5.53;2.00;;;2.60;92.80;;;;;;603502;234;26588;-66
2022/04/04 00:36:10;;;;;;;2.10;1.95;;;2.60;92.80;;;;;;602882;235;26623;-66
2022/04/04 00:38:37;;;;;;;2.12;1.92;;;2.60;93.10;;;;;;602579;232;26635;-67
2022/04/04 00:41:08;;;;;;;3.62;2.12;;;2.60;92.90;;;;;;602109;239;26811;-66
2022/04/04 00:43:35;;;;;;;2.72;2.20;;;2.60;92.90;;;;;;602126;239;26589;-66
2022/04/04 00:46:03;;;;;;;1.70;1.60;;;2.60;92.90;;;;;;602339;236;26609;-66
2022/04/04 00:48:31;;;;;;;2.30;2.15;;;2.60;93.10;;;;;;602566;236;26607;-67
2022/04/04 00:50:58;;;;;;;2.03;1.92;;;2.50;92.80;;;;;;604850;237;26910;-66
2022/04/04 00:53:25;;;;;;;2.15;2.05;;;2.60;92.90;;;;;;604904;237;26586;-66
2022/04/04 00:55:53;;;;;;;5.07;2.15;;;2.50;92.80;;;;;;604901;234;26847;-66
2022/04/04 00:58:21;;;;;;;2.60;2.40;;;2.60;92.60;;;;;;605156;232;26577;-66
2022/04/04 01:00:49;;;;;;;2.00;1.90;;;2.60;92.40;;;;;;610225;235;26584;-66
2022/04/04 01:03:17;;;;;;;2.37;2.17;;;2.60;92.40;;;;;;610206;236;26628;-66
2022/04/04 01:05:44;;;;;;;1.98;1.87;;;2.60;92.40;;;;;;610058;235;26886;-66
2022/04/04 01:08:12;;;;;;;2.72;2.47;;;2.60;92.50;;;;;;609688;235;26593;-66
2022/04/04 01:10:40;;;;;;;2.08;1.98;;;2.60;92.50;;;;;;614212;234;26630;-66
2022/04/04 01:13:07;;;;;;;2.22;2.12;;;2.50;92.40;;;;;;614358;234;26622;-65
2022/04/04 01:15:34;;;;;;;3.30;2.03;;;2.50;92.50;;;;;;614329;234;26875;-66
2022/04/04 01:18:01;;;;;;;2.30;2.10;;;2.50;92.60;;;;;;608108;234;26585;-66
2022/04/04 01:20:28;;;;;;;2.50;2.28;;;2.40;92.50;;;;;;604547;238;26571;-66
2022/04/04 01:22:56;;;;;;;3.55;2.35;;;2.40;92.70;;;;;;605065;235;26607;-65
2022/04/04 01:25:24;;;;;;;3.10;2.22;;;2.40;92.70;;;;;;612197;234;26634;-65
2022/04/04 01:27:52;;;;;;;2.50;2.37;;;2.30;92.70;;;;;;607035;231;26872;-66
2022/04/04 01:30:19;;;;;;;3.08;2.60;;;2.30;92.70;;;;;;610541;235;26630;-65
2022/04/04 01:32:46;;;;;;;2.53;2.33;;;2.30;92.80;;;;;;604507;232;26656;-66
2022/04/04 01:35:13;;;;;;;2.50;2.30;;;2.30;92.90;;;;;;604479;237;26595;-66
2022/04/04 01:37:41;;;;;;;2.33;2.22;;;2.20;93.00;;;;;;603180;238;26839;-66
2022/04/04 01:40:08;;;;;;;2.10;2.00;;;2.20;93.00;;;;;;601540;233;26633;-66
2022/04/04 01:42:37;;;;;;;2.45;2.25;;;2.20;93.00;;;;;;602641;237;27213;-66
2022/04/04 01:45:05;;;;;;;2.60;2.37;;;2.20;93.00;;;;;;602575;238;26589;-66
2022/04/04 01:47:32;;;;;;;4.07;2.20;;;2.20;93.00;;;;;;603474;237;26555;-66
2022/04/04 01:49:59;;;;;;;2.10;2.00;;;2.10;93.10;;;;;;605418;237;26837;-66
2022/04/04 01:52:28;;;;;;;3.92;2.80;;;2.10;93.20;;;;;;605126;237;26678;-66
2022/04/04 01:54:55;;;;;;;2.08;1.98;;;2.10;93.30;;;;;;605144;238;26634;-67
2022/04/04 01:57:23;;;;;;;2.95;2.30;;;2.10;93.30;;;;;;604561;236;26609;-67
2022/04/04 01:59:51;;;;;;;2.65;2.10;;;2.10;93.30;;;;;;605006;237;26623;-66
2022/04/04 02:02:18;;;;;;;2.17;2.08;;;2.10;93.40;;;;;;606824;236;26603;-66
2022/04/04 02:04:45;;;;;;;2.70;2.50;;;2.10;93.40;;;;;;610189;236;26866;-66
2022/04/04 02:07:13;;;;;;;3.10;2.58;;;2.10;93.50;;;;;;610178;236;26652;-66
2022/04/04 02:09:41;;;;;;;2.80;2.60;;;2.10;93.40;;;;;;608287;236;26634;-66
2022/04/04 02:12:10;;;;;;;2.62;2.42;;;2.10;93.30;;;;;;601745;239;26839;-66
2022/04/04 02:14:36;;;;;;;2.58;2.30;;;2.10;93.30;;;;;;606773;232;27093;-66
2022/04/04 02:17:03;;;;;;;2.53;2.40;;;2.10;93.40;;;;;;604861;237;26582;-65
2022/04/04 02:19:32;;;;;;;2.40;2.20;;;2.10;93.30;;;;;;607521;235;26658;-66
2022/04/04 02:22:00;;;;;;;2.12;2.03;;;2.10;93.30;;;;;;602561;236;26642;-65
2022/04/04 02:24:27;;;;;;;2.28;2.10;;;2.10;93.30;;;;;;601515;237;26645;-65
2022/04/04 02:26:55;;;;;;;2.58;2.47;;;2.10;93.40;;;;;;601493;239;26670;-66
2022/04/04 02:29:22;;;;;;;2.50;2.40;;;2.10;93.40;;;;;;605777;236;26658;-66
2022/04/04 02:31:49;;;;;;;2.75;2.55;;;2.10;93.40;;;;;;608545;236;26859;-66
2022/04/04 02:34:16;;;;;;;2.78;2.58;;;2.00;93.50;;;;;;609643;236;26597;-66
2022/04/04 02:36:44;;;;;;;3.00;2.80;;;2.00;93.50;;;;;;609684;235;26624;-62
2022/04/04 02:39:12;;;;;;;2.92;2.58;;;2.00;93.60;;;;;;609700;236;26592;-61
2022/04/04 02:41:39;;;;;;;3.00;2.80;;;2.00;93.60;;;;;;609605;236;26623;-62
2022/04/04 02:44:07;;;;;;;2.50;2.30;;;2.00;93.70;;;;;;609806;236;26588;-61
2022/04/04 02:46:35;;;;;;;2.83;2.53;;;2.00;93.80;;;;;;609869;235;26614;-61
2022/04/04 02:49:03;;;;;;;2.85;2.60;;;2.00;93.90;;;;;;609767;236;26596;-61
2022/04/04 02:51:31;;;;;;;3.90;2.70;;;2.00;93.80;;;;;;604436;235;26935;-61
2022/04/04 02:53:58;;;;;;;3.17;2.83;;;2.00;93.90;;;;;;602618;236;26588;-61
2022/04/04 02:56:29;;;;;;;2.70;2.50;;;2.00;93.80;;;;;;602779;237;26895;-61
2022/04/04 02:58:56;;;;;;;2.67;2.47;;;2.00;93.90;;;;;;602379;238;26562;-61
2022/04/04 03:01:23;;;;;;;3.75;2.53;;;2.00;93.90;;;;;;602568;235;26599;-61
2022/04/04 03:03:51;;;;;;;2.60;2.40;;;2.00;94.00;;;;;;603554;238;26639;-61
2022/04/04 03:06:19;;;;;;;2.60;2.37;;;2.00;94.10;;;;;;605189;238;26614;-61
2022/04/04 03:08:46;;;;;;;3.08;2.67;;;1.90;94.00;;;;;;603745;236;26834;-61
2022/04/04 03:11:15;;;;;;;2.25;2.15;;;1.90;94.00;;;;;;601975;237;26594;-62
2022/04/04 03:13:41;;;;;;;2.83;2.62;;;1.90;94.40;;;;;;601758;239;26811;-61
2022/04/04 03:16:08;;;;;;;2.67;2.58;;;1.90;94.20;;;;;;601766;237;26618;-62
2022/04/04 03:18:35;;;;;;;2.65;2.45;;;1.90;94.20;;;;;;601979;236;26583;-62
2022/04/04 03:21:03;;;;;;;2.60;2.40;;;2.00;94.20;;;;;;602133;238;26591;-62
2022/04/04 03:23:31;;;;;;;3.85;2.60;;;2.00;94.20;;;;;;604077;236;26594;-62
2022/04/04 03:25:58;;;;;;;2.90;2.70;;;2.00;94.20;;;;;;601783;237;26605;-62
2022/04/04 03:28:25;;;;;;;3.05;2.85;;;2.00;94.20;;;;;;601803;239;26553;-61
2022/04/04 03:30:53;;;;;;;3.92;2.75;;;2.00;94.10;;;;;;601530;237;26628;-62
2022/04/04 03:33:21;;;;;;;2.80;2.28;;;2.00;94.10;;;;;;601778;237;26665;-61
2022/04/04 03:35:48;;;;;;;2.80;2.60;;;2.00;94.20;;;;;;605601;236;26656;-61
2022/04/04 03:38:16;;;;;;;2.25;2.08;;;2.00;94.20;;;;;;604450;236;26588;-61
2022/04/04 03:40:43;;;;;;;2.80;2.60;;;2.00;94.20;;;;;;604583;238;26583;-61
2022/04/04 03:43:11;;;;;;;3.05;2.83;;;2.00;94.30;;;;;;604573;237;26606;-61
2022/04/04 03:45:38;;;;;;;2.35;2.15;;;1.90;94.20;;;;;;604255;232;26924;-61
2022/04/04 03:48:06;;;;;;;2.87;2.58;;;2.00;94.00;;;;;;604871;235;26588;-62
2022/04/04 03:50:33;;;;;;;2.40;2.20;;;2.00;94.20;;;;;;614141;234;26608;-61
2022/04/04 03:53:00;;;;;;;2.55;2.20;;;2.00;94.10;;;;;;612208;234;27028;-61
2022/04/04 03:55:28;;;;;;;2.33;2.12;;;2.00;94.30;;;;;;602185;236;26638;-61
2022/04/04 03:57:54;;;;;;;2.90;2.70;;;2.00;94.30;;;;;;605385;236;26558;-61
2022/04/04 04:00:23;;;;;;;2.60;2.40;;;2.00;94.30;;;;;;607526;235;26565;-61
2022/04/04 04:02:51;;;;;;;2.35;2.15;;;2.00;94.30;;;;;;601765;239;26606;-61
2022/04/04 04:05:19;;;;;;;2.78;2.58;;;2.00;94.50;;;;;;602731;237;26676;-61
2022/04/04 04:07:47;;;;;;;2.50;2.30;;;1.90;94.40;;;;;;602751;238;26819;-61
2022/04/04 04:10:14;;;;;;;2.45;2.30;;;1.90;94.40;;;;;;602893;235;26943;-61
2022/04/04 04:12:41;;;;;;;2.70;2.50;;;1.90;94.40;;;;;;602595;237;26586;-61
2022/04/04 04:15:10;;;;;;;2.28;2.00;;;1.90;94.30;;;;;;603222;235;26645;-61
2022/04/04 04:17:37;;;;;;;2.62;2.42;;;2.00;94.30;;;;;;606574;234;26641;-61
2022/04/04 04:22:39;;;;;;;2.75;2.33;;;1.90;94.20;;;;;;602272;236;26581;-61
2022/04/04 04:25:07;;;;;;;2.35;2.25;;;2.00;94.10;;;;;;601727;239;26800;-61
2022/04/04 04:27:34;;;;;;;2.50;2.30;;;2.00;94.20;;;;;;601794;239;26597;-61
2022/04/04 04:30:01;;;;;;;2.25;2.10;;;2.00;94.10;;;;;;607444;235;26918;-62
2022/04/04 04:32:29;;;;;;;2.20;2.03;;;2.00;94.10;;;;;;604813;237;26583;-61
2022/04/04 04:34:56;;;;;;;2.90;2.00;;;2.00;94.20;;;;;;604691;236;26832;-61
2022/04/04 04:37:24;;;;;;;2.00;1.90;;;2.00;94.10;;;;;;614131;234;26599;-61
2022/04/04 04:39:52;;;;;;;2.45;2.25;;;2.00;94.10;;;;;;613595;234;26571;-61
2022/04/04 04:42:19;;;;;;;2.35;2.25;;;2.00;94.10;;;;;;612346;235;26878;-61
2022/04/04 04:44:46;;;;;;;3.05;2.30;;;2.00;93.80;;;;;;602435;234;26636;-62
2022/04/04 04:47:15;;;;;;;2.72;2.42;;;2.00;94.00;;;;;;601546;237;26929;-61
2022/04/04 04:49:41;;;;;;;3.90;1.80;;;2.00;94.10;;;;;;604007;237;26569;-61
2022/04/04 04:52:08;;;;;;;2.25;2.00;;;2.10;93.90;;;;;;604614;237;26850;-61
2022/04/04 04:54:36;;;;;;;1.95;1.85;;;2.10;93.70;;;;;;604322;236;26553;-62
2022/04/04 04:57:03;;;;;;;2.65;2.12;;;2.10;93.70;;;;;;604969;235;26856;-61
2022/04/04 04:59:31;;;;;;;2.45;2.10;;;2.10;93.80;;;;;;609871;236;26629;-61
2022/04/04 05:01:59;;;;;;;2.40;2.20;;;2.20;93.60;;;;;;609861;236;26601;-61
2022/04/04 05:04:27;;;;;;;2.15;1.95;;;2.20;93.90;;;;;;609270;236;26602;-62
2022/04/04 05:06:55;;;;;;;2.45;2.35;;;2.20;93.40;;;;;;614355;233;26615;-60
2022/04/04 05:09:23;;;;;;;2.17;1.98;;;2.20;93.40;;;;;;614391;234;26627;-61
2022/04/04 05:11:50;;;;;;;2.37;2.20;;;2.20;93.40;;;;;;614359;234;26650;-60
2022/04/04 05:14:17;;;;;;;5.00;2.80;;;2.30;93.30;;;;;;607260;234;26642;-61
2022/04/04 05:16:45;;;;;;;2.87;2.60;;;2.30;93.10;;;;;;605466;235;26839;-61
2022/04/04 05:19:12;;;;;;;2.05;1.95;;;2.40;93.00;;;;;;605863;234;26638;-62
2022/04/04 05:21:39;;;;;;;2.42;2.22;;;2.60;92.80;;;;;;605535;236;26586;-60
2022/04/04 05:24:07;;;;;;;2.50;2.30;;;2.70;92.30;;;;;;604934;236;26610;-61
2022/04/04 05:26:35;;;;;;;4.22;2.22;;;2.80;92.20;;;;;;603445;236;26649;-62
2022/04/04 05:29:02;;;;;;;1.45;1.37;;;2.80;92.00;;;;;;602064;237;26814;-61
2022/04/04 05:31:30;;;;;;;2.45;2.22;;;2.90;92.10;;;;;;602473;232;26593;-62
2022/04/04 05:33:57;;;;;;;3.05;2.58;;;3.00;91.60;;;;;;601945;237;26581;-61
2022/04/04 05:36:26;;;;;;;3.15;1.98;;;3.10;91.30;;;;;;602833;234;26848;-61
2022/04/04 05:38:53;;;;;;;3.62;2.10;;;3.10;91.70;;;;;;602626;235;26597;-61
2022/04/04 05:41:20;;;;;;;2.28;2.08;;;3.20;91.20;;;;;;604743;236;26721;-62
2022/04/04 05:43:49;;;;;;;2.85;2.47;;;3.20;90.70;;;;;;608367;236;26623;-62
2022/04/04 05:46:18;;;;;;;2.20;2.05;;;3.30;90.40;;;;;;604267;236;26622;-61
2022/04/04 05:48:45;;;;;;;1.92;1.83;;;3.30;90.40;;;;;;601821;237;26605;-61
2022/04/04 05:51:13;;;;;;;2.17;1.77;;;3.30;90.40;;;;;;602279;236;26585;-62
2022/04/04 05:53:40;;;;;;;1.95;1.85;;;3.30;90.00;;;;;;601500;239;26878;-62
2022/04/04 05:56:07;;;;;;;2.30;2.10;;;3.30;90.00;;;;;;601438;238;26885;-61
2022/04/04 05:58:36;;;;;;;2.25;2.00;;;3.40;89.80;;;;;;601507;237;26598;-60
2022/04/04 06:01:04;;;;;;;1.90;1.80;;;3.50;89.50;;;;;;602372;236;26622;-61
2022/04/04 06:03:31;;;;;;;2.67;1.80;;;3.50;89.50;;;;;;605389;235;26958;-61
2022/04/04 06:05:58;;;;;;;2.08;1.90;;;3.60;89.70;;;;;;607811;236;26647;-61
2022/04/04 06:08:25;;;;;;;2.58;2.00;;;3.70;89.80;;;;;;611249;235;27196;-61
2022/04/04 06:10:53;;;;;;;1.73;1.62;;;3.90;87.10;;;;;;612350;235;26639;-61
2022/04/04 06:13:21;;;;;;;2.03;1.83;;;3.90;86.60;;;;;;612362;231;26633;-61
2022/04/04 06:15:49;;;;;;;2.83;1.95;;;3.90;86.60;;;;;;612241;234;26661;-61
2022/04/04 06:18:16;;;;;;;2.45;1.95;;;4.00;85.60;;;;;;612440;235;26619;-61
2022/04/04 06:20:44;;;;;;;2.17;1.98;;;4.10;86.30;;;;;;607818;235;26614;-62
2022/04/04 06:23:11;;;;;;;1.80;1.70;;;4.20;86.40;;;;;;609832;236;26581;-62
2022/04/04 06:25:39;;;;;;;2.20;1.90;;;4.40;85.00;;;;;;609092;235;26606;-62
2022/04/04 06:28:07;;;;;;;2.53;1.98;;;4.40;84.50;;;;;;608345;233;26628;-62
2022/04/04 06:30:35;;;;;;;1.80;1.70;;;4.50;83.70;;;;;;602855;238;26644;-61
2022/04/04 06:33:05;;;;;;;2.00;1.90;;;4.50;83.70;;;;;;602932;237;26841;-60
2022/04/04 06:35:32;;;;;;;2.42;1.90;;;4.60;83.10;;;;;;603481;234;26666;-62
2022/04/04 06:38:01;;;;;;;3.22;1.35;;;4.70;82.20;;;;;;604530;232;26622;-61
2022/04/04 06:40:27;;;;;;;1.80;1.70;;;4.70;82.20;;;;;;608433;234;26642;-62
2022/04/04 06:42:56;;;;;;;2.00;1.80;;;4.80;83.30;;;;;;604748;235;26671;-62
2022/04/04 06:45:22;;;;;;;66.75;10.80;;;4.80;81.90;;;;;;607764;234;26857;-65
2022/04/04 06:47:49;;;;;;;74.18;15.73;;;4.90;82.10;;;;;;601756;237;26578;-63
2022/04/04 06:50:16;;;;;;;62.10;10.88;;;5.00;80.90;;;;;;604245;237;27477;-62
2022/04/04 06:52:44;;;;;;;63.53;12.88;;;5.10;81.10;;;;;;604832;238;26596;-63
2022/04/04 06:55:11;;;;;;;66.57;11.40;;;5.00;79.90;;;;;;605285;235;26573;-64
2022/04/04 06:57:39;;;;;;;56.25;10.32;;;5.10;79.60;;;;;;601779;237;26595;-64
2022/04/04 07:00:08;;;;;;;43.90;9.82;;;5.10;79.60;;;;;;601665;239;26582;-63
2022/04/04 07:02:34;;;;;;;30.98;7.55;;;5.30;80.30;;;;;;602101;239;26578;-64
2022/04/04 07:05:04;;;;;;;34.03;8.00;;;5.20;78.30;;;;;;601880;239;26854;-63
2022/04/04 07:07:28;;;;;;;27.17;7.00;;;5.30;78.40;;;;;;601629;238;26602;-64
2022/04/04 07:09:56;;;;;;;29.75;6.78;;;5.30;77.70;;;;;;601890;239;26814;-64
2022/04/04 07:12:23;;;;;;;24.50;5.75;;;5.40;76.60;;;;;;601942;239;26611;-64
2022/04/04 07:14:51;;;;;;;19.60;5.20;;;5.40;76.60;;;;;;601870;239;26621;-61
2022/04/04 07:17:18;;;;;;;23.50;4.87;;;5.50;76.00;;;;;;601917;233;26635;-66
2022/04/04 07:19:45;;;;;;;7.07;3.25;;;5.50;75.70;;;;;;601951;235;26559;-65
2022/04/04 07:22:14;;;;;;;1.75;1.62;;;5.60;75.60;;;;;;606256;235;26818;-65
2022/04/04 07:24:41;;;;;;;3.35;2.72;;;5.60;75.10;;;;;;604230;236;26570;-66
2022/04/04 07:27:09;;;;;;;7.30;2.50;;;5.60;74.40;;;;;;610734;235;26619;-66
2022/04/04 07:29:36;;;;;;;4.40;2.40;;;5.60;74.40;;;;;;607373;235;26608;-66
2022/04/04 07:32:04;;;;;;;3.87;2.00;;;5.70;74.10;;;;;;602849;236;26629;-66
2022/04/04 07:34:31;;;;;;;4.80;2.33;;;5.60;74.20;;;;;;608013;235;26594;-66
2022/04/04 07:36:58;;;;;;;9.07;2.65;;;5.80;73.90;;;;;;608400;236;26906;-67
2022/04/04 07:39:25;;;;;;;7.20;2.50;;;5.90;73.50;;;;;;603102;235;26601;-65
2022/04/04 07:41:52;;;;;;;4.57;2.20;;;5.90;73.20;;;;;;608832;235;26621;-66
2022/04/04 07:44:20;;;;;;;5.82;2.12;;;6.00;72.00;;;;;;606996;235;26619;-66
2022/04/04 07:46:47;;;;;;;2.92;2.62;;;6.00;71.90;;;;;;602598;236;26588;-66
2022/04/04 07:49:15;;;;;;;2.35;1.70;;;6.00;72.10;;;;;;604541;236;26627;-66
2022/04/04 07:51:42;;;;;;;2.28;1.50;;;6.20;71.90;;;;;;610401;235;27252;-66
2022/04/04 07:54:09;;;;;;;3.85;2.35;;;6.30;71.20;;;;;;604831;236;26577;-67
2022/04/04 07:56:36;;;;;;;3.20;2.20;;;6.50;70.90;;;;;;609160;234;26635;-67
2022/04/04 07:59:04;;;;;;;2.90;2.10;;;6.60;70.70;;;;;;612138;235;26599;-66
2022/04/04 08:01:32;;;;;;;3.67;2.42;;;6.70;69.30;;;;;;606750;236;26624;-66
2022/04/04 08:03:59;;;;;;;4.53;2.62;;;6.60;69.20;;;;;;603464;237;26955;-66
2022/04/04 08:06:26;;;;;;;2.62;1.95;;;6.70;68.80;;;;;;608795;235;26656;-62
2022/04/04 08:08:54;;;;;;;7.40;2.97;;;6.50;69.40;;;;;;609670;235;26853;-63
2022/04/04 08:11:21;;;;;;;19.77;2.90;;;6.70;69.10;;;;;;605328;235;26586;-64
2022/04/04 08:13:49;;;;;;;3.45;2.22;;;6.80;69.00;;;;;;611288;235;26579;-64
2022/04/04 08:16:17;;;;;;;7.20;2.30;;;6.80;68.90;;;;;;603382;236;26691;-64
2022/04/04 08:18:44;;;;;;;2.55;1.95;;;6.80;68.60;;;;;;603290;235;26601;-64
2022/04/04 08:21:12;;;;;;;6.03;2.45;;;6.90;68.20;;;;;;602319;238;26629;-64
2022/04/04 08:23:38;;;;;;;2.42;2.30;;;7.00;66.70;;;;;;601598;236;26843;-63
2022/04/04 08:26:06;;;;;;;8.55;2.67;;;6.80;66.60;;;;;;601470;236;26672;-64
2022/04/04 08:28:33;;;;;;;5.40;2.80;;;7.10;67.20;;;;;;603107;236;26638;-64
2022/04/04 08:31:01;;;;;;;3.08;1.85;;;7.20;65.60;;;;;;612515;234;26637;-64
2022/04/04 08:33:29;;;;;;;4.50;2.28;;;7.30;64.40;;;;;;604599;236;26579;-65
2022/04/04 08:35:57;;;;;;;2.90;2.30;;;7.20;64.20;;;;;;605784;235;26916;-65
2022/04/04 08:38:23;;;;;;;3.08;1.75;;;7.20;64.50;;;;;;603748;235;26635;-64
2022/04/04 08:40:51;;;;;;;3.55;2.40;;;7.40;64.60;;;;;;603539;236;27070;-65
2022/04/04 08:43:18;;;;;;;2.92;2.53;;;7.30;63.50;;;;;;602994;232;26612;-65
2022/04/04 08:45:44;;;;;;;2.87;2.65;;;7.50;63.60;;;;;;608122;234;26633;-65
2022/04/04 08:48:12;;;;;;;2.50;2.30;;;7.70;64.10;;;;;;608047;235;26563;-64
2022/04/04 08:50:40;;;;;;;2.28;2.12;;;7.70;64.00;;;;;;604641;234;26624;-65
2022/04/04 08:53:07;;;;;;;2.85;2.58;;;7.60;63.10;;;;;;611466;235;26536;-64
2022/04/04 08:55:35;;;;;;;4.00;2.58;;;7.50;62.70;;;;;;607141;235;26909;-64
2022/04/04 08:58:01;;;;;;;8.75;3.72;;;7.50;62.40;;;;;;608077;235;26618;-65
2022/04/04 09:00:29;;;;;;;5.03;3.25;;;7.40;61.60;;;;;;609316;235;26608;-65
2022/04/04 09:02:58;;;;;;;3.30;3.00;;;7.60;62.00;;;;;;606166;234;26601;-64
2022/04/04 09:05:26;;;;;;;2.90;2.70;;;7.60;61.90;;;;;;608969;236;26636;-64
2022/04/04 09:08:03;;;;;;;3.62;2.80;;;7.70;60.80;;;;;;607477;236;26591;-65
2022/04/04 09:10:30;;;;;;;3.50;3.20;;;7.70;60.20;;;;;;601757;233;26596;-65
2022/04/04 09:13:03;;;;;;;2.85;2.65;;;7.70;60.10;;;;;;607302;236;26830;-63
2022/04/04 09:15:36;;;;;;;4.32;3.05;;;7.70;60.60;;;;;;603283;236;27130;-64
2022/04/04 09:18:05;;;;;;;5.95;3.53;;;7.60;59.70;;;;;;602401;235;26555;-63
2022/04/04 09:20:32;;;;;;;2.92;2.50;;;7.60;59.70;;;;;;604317;236;27156;-64
2022/04/04 09:22:59;;;;;;;4.20;3.15;;;7.70;59.40;;;;;;604290;236;26614;-64
2022/04/04 09:25:30;;;;;;;2.33;2.12;;;7.70;59.40;;;;;;602532;232;26873;-65
2022/04/04 09:27:57;;;;;;;3.12;2.92;;;7.70;59.60;;;;;;603111;238;26593;-65
2022/04/04 09:30:25;;;;;;;6.45;4.60;;;7.80;59.80;;;;;;602134;237;26880;-64
2022/04/04 09:32:53;;;;;;;3.92;3.50;;;7.70;60.20;;;;;;604047;238;26594;-63
2022/04/04 09:35:21;;;;;;;3.10;2.90;;;7.80;59.50;;;;;;602252;234;26868;-66
2022/04/04 09:37:48;;;;;;;2.20;2.10;;;7.80;59.20;;;;;;603214;238;26583;-66
2022/04/04 09:40:17;;;;;;;3.85;3.55;;;7.80;59.10;;;;;;603451;233;26594;-67
2022/04/04 09:42:59;;;;;;;3.30;2.85;;;7.60;59.00;;;;;;608893;236;26557;-67
2022/04/04 09:45:28;;;;;;;3.83;3.50;;;7.60;59.20;;;;;;609769;235;26572;-67
2022/04/04 09:47:57;;;;;;;5.93;4.18;;;7.80;59.10;;;;;;607170;236;26627;-66
2022/04/04 09:50:41;;;;;;;3.83;3.10;;;7.80;59.20;;;;;;608276;236;26818;-67
2022/04/04 09:53:11;;;;;;;3.12;2.80;;;7.80;58.70;;;;;;601281;239;26628;-74
2022/04/04 09:55:38;;;;;;;3.55;3.25;;;7.70;58.70;;;;;;601166;239;26655;-74
2022/04/04 09:58:06;;;;;;;10.98;4.43;;;8.30;58.30;;;;;;603126;237;26578;-73
2022/04/04 10:00:35;;;;;;;15.82;4.95;;;8.40;58.00;;;;;;602685;237;26606;-72
2022/04/04 10:03:04;;;;;;;19.25;4.78;;;8.40;58.00;;;;;;602820;237;26628;-74
2022/04/04 10:05:30;;;;;;;17.40;5.70;;;8.40;57.30;;;;;;605052;235;26661;-75
2022/04/04 10:07:59;;;;;;;17.92;5.55;;;8.70;57.00;;;;;;606490;234;26633;-75
2022/04/04 10:10:26;;;;;;;15.60;5.40;;;8.70;57.20;;;;;;604448;237;26847;-76
2022/04/04 10:12:53;;;;;;;3.40;3.10;;;9.00;56.90;;;;;;609633;235;26615;-75
2022/04/04 10:15:21;;;;;;;6.82;3.90;;;9.10;56.90;;;;;;603179;237;26848;-75
2022/04/04 10:17:49;;;;;;;5.55;3.22;;;9.00;56.60;;;;;;604152;238;26610;-74
2022/04/04 10:20:16;;;;;;;10.43;3.60;;;8.90;56.40;;;;;;604390;238;26613;-71
2022/04/04 10:22:44;;;;;;;3.83;3.53;;;8.80;56.10;;;;;;602571;238;26579;-74
2022/04/04 10:25:14;;;;;;;66.65;15.88;;;8.70;56.10;;;;;;604802;234;26599;-72
2022/04/04 10:27:42;;;;;;;274.98;33.65;;;8.90;56.10;;;;;;604831;237;26590;-72
2022/04/04 10:30:10;;;;;;;1999.90;461.12;;;8.70;55.60;;;;;;602966;232;26581;-73
2022/04/04 10:32:37;;;;;;;1999.90;470.27;;;8.70;55.60;;;;;;601656;237;26787;-70
2022/04/04 10:35:08;;;;;;;92.80;24.50;;;8.60;55.70;;;;;;609442;235;26601;-72
2022/04/04 10:37:43;;;;;;;72.65;19.35;;;8.80;56.00;;;;;;608197;235;26650;-74
2022/04/04 10:40:17;;;;;;;32.00;9.98;;;9.00;55.70;;;;;;602618;238;26661;-73
2022/04/04 10:42:46;;;;;;;15.80;6.53;;;9.20;56.00;;;;;;601171;237;26668;-73
2022/04/04 10:45:12;;;;;;;21.67;8.68;;;9.30;55.60;;;;;;601707;238;26613;-73
2022/04/04 10:47:39;;;;;;;20.40;9.35;;;9.60;55.30;;;;;;601703;237;26921;-72
2022/04/04 10:50:15;;;;;;;48.42;16.67;;;9.30;55.20;;;;;;601627;237;26561;-72
2022/04/04 10:52:43;;;;;;;40.40;15.32;;;9.30;54.80;;;;;;601691;237;26621;-72
2022/04/04 10:55:28;;;;;;;7.75;5.00;;;9.30;55.00;;;;;;601439;239;26843;-72
2022/04/04 10:57:58;;;;;;;22.33;10.05;;;9.10;55.60;;;;;;600291;239;26673;-72
2022/04/04 11:00:31;;;;;;;27.33;12.73;;;8.90;55.50;;;;;;601604;238;26848;-73
2022/04/04 11:02:58;;;;;;;17.65;9.45;;;9.10;55.20;;;;;;601545;238;26895;-73
2022/04/04 11:07:58;;;;;;;7.45;5.10;;;9.10;54.80;;;;;;601560;237;26634;-73
2022/04/04 11:10:33;;;;;;;3.67;2.72;;;9.00;54.50;;;;;;601593;237;26626;-73
2022/04/04 11:13:08;;;;;;;12.27;7.12;;;9.20;54.70;;;;;;601254;236;26626;-73
2022/04/04 11:15:43;;;;;;;5.30;2.83;;;9.20;53.80;;;;;;602958;237;26651;-72
2022/04/04 11:18:11;;;;;;;3.37;2.35;;;9.00;53.60;;;;;;602451;238;26823;-72
2022/04/04 11:20:48;;;;;;;9.82;7.68;;;9.00;54.10;;;;;;602390;237;26637;-72
2022/04/04 11:23:14;;;;;;;7.35;6.68;;;9.20;53.40;;;;;;602301;239;26654;-74
2022/04/04 11:25:49;;;;;;;10.73;6.87;;;9.10;53.70;;;;;;602091;237;26848;-72
2022/04/04 11:28:17;;;;;;;9.98;6.10;;;9.00;53.30;;;;;;601819;239;26823;-73
2022/04/04 11:30:43;;;;;;;5.75;5.20;;;8.90;53.50;;;;;;601942;239;26584;-73
2022/04/04 11:33:17;;;;;;;8.75;7.00;;;9.00;53.60;;;;;;601820;237;26591;-72
2022/04/04 11:35:38;;;;;;;4.93;3.42;;;9.20;53.90;;;;;;601405;239;26602;-74
2022/04/04 11:38:06;;;;;;;2.20;2.08;;;9.20;53.80;;;;;;601721;239;26586;-72
2022/04/04 11:40:37;;;;;;;9.70;7.00;;;9.10;55.00;;;;;;601779;237;26591;-72
2022/04/04 11:43:11;;;;;;;4.37;3.92;;;9.20;53.50;;;;;;601728;239;26603;-72
2022/04/04 11:45:39;;;;;;;6.90;6.28;;;9.10;53.40;;;;;;601818;237;26617;-72
2022/04/04 11:48:17;;;;;;;7.95;6.87;;;8.90;54.40;;;;;;601682;239;26588;-72
2022/04/04 11:50:43;;;;;;;7.97;6.07;;;8.90;54.40;;;;;;601585;237;26589;-73
2022/04/04 11:53:11;;;;;;;11.10;6.53;;;9.20;54.70;;;;;;601554;237;26931;-74
2022/04/04 11:55:38;;;;;;;10.07;5.95;;;9.20;54.70;;;;;;601552;237;27407;-74
2022/04/04 11:58:10;;;;;;;7.22;5.70;;;8.80;55.50;;;;;;601562;237;26651;-72
2022/04/04 12:00:35;;;;;;;5.50;4.93;;;8.60;56.00;;;;;;601315;239;26640;-73
2022/04/04 12:03:03;;;;;;;10.88;5.30;;;8.60;56.00;;;;;;601582;239;26630;-73
2022/04/04 12:05:33;;;;;;;5.40;4.57;;;8.50;56.50;;;;;;601572;232;26654;-73
2022/04/04 12:07:58;;;;;;;6.22;4.72;;;8.40;57.00;;;;;;601669;238;26680;-74
2022/04/04 12:10:30;;;;;;;5.53;4.57;;;8.40;57.00;;;;;;601485;239;26831;-73
2022/04/04 12:12:58;;;;;;;3.95;3.15;;;8.30;57.80;;;;;;601452;239;26659;-74
2022/04/04 12:15:29;;;;;;;5.75;4.18;;;8.50;57.60;;;;;;601553;237;26666;-72
2022/04/04 12:17:56;;;;;;;6.05;3.85;;;8.50;57.60;;;;;;600748;239;26858;-73
2022/04/04 12:20:23;;;;;;;5.65;3.75;;;8.40;57.60;;;;;;601501;239;26912;-73
2022/04/04 12:25:23;;;;;;;3.03;2.83;;;8.10;58.80;;;;;;601649;237;26682;-73
2022/04/04 12:27:55;;;;;;;7.35;3.17;;;7.80;62.20;;;;;;603074;236;26629;-72
2022/04/04 12:30:22;;;;;;;4.20;3.37;;;7.50;65.20;;;;;;602666;238;26645;-72
2022/04/04 12:32:49;;;;;;;3.95;3.65;;;7.50;63.10;;;;;;601877;238;26855;-73
2022/04/04 12:35:17;;;;;;;6.40;3.60;;;7.50;64.10;;;;;;602592;239;26606;-73
2022/04/04 12:37:45;;;;;;;3.92;3.47;;;7.40;66.10;;;;;;602108;237;26569;-73
2022/04/04 12:40:15;;;;;;;2.05;1.83;;;7.40;66.20;;;;;;602469;237;26803;-73
2022/04/04 12:42:42;;;;;;;5.28;2.72;;;7.10;69.70;;;;;;602454;237;26585;-73
2022/04/04 12:45:11;;;;;;;2.60;2.40;;;6.80;70.00;;;;;;602193;237;26565;-73
2022/04/04 12:47:36;;;;;;;3.75;1.75;;;6.70;71.40;;;;;;602101;238;26570;-73
2022/04/04 12:50:12;;;;;;;4.93;2.87;;;6.60;72.40;;;;;;599786;239;26554;-74
2022/04/04 12:52:50;;;;;;;2.62;2.40;;;6.50;72.20;;;;;;602312;239;26824;-73
2022/04/04 12:55:17;;;;;;;2.65;2.33;;;6.30;75.40;;;;;;601947;239;26574;-73
2022/04/04 12:57:45;;;;;;;3.75;3.45;;;5.60;79.70;;;;;;601784;239;26566;-74
2022/04/04 13:00:14;;;;;;;6.32;5.05;;;5.40;83.00;;;;;;601776;239;26586;-72
2022/04/04 13:02:41;;;;;;;7.68;5.00;;;5.40;83.00;;;;;;600128;239;26906;-72
2022/04/04 13:05:11;;;;;;;7.10;6.35;;;5.10;86.70;;;;;;601519;239;26619;-73
2022/04/04 13:07:38;;;;;;;7.82;5.90;;;5.00;89.50;;;;;;601583;239;26629;-66